sensor_id;sensor_type;location;lat;lon;timestamp;P1;durP1;ratioP1;P2;durP2;ratioP2
22287;SDS011;11312;51.464;6.968;2023-09-08T00:01:21;1.85;;;0.90;;
22287;SDS011;11312;51.464;6.968;2023-09-08T00:03:47;2.30;;;1.05;;
22287;SDS011;11312;51.464;6.968;2023-09-08T00:06:13;1.58;;;1.05;;
22287;SDS011;11312;51.464;6.968;2023-09-08T00:08:38;2.30;;;1.30;;
22287;SDS011;11312;51.464;6.968;2023-09-08T00:11:04;2.72;;;1.35;;
22287;SDS011;11312;51.464;6.968;2023-09-08T00:13:31;4.10;;;1.80;;
22287;SDS011;11312;51.464;6.968;2023-09-08T00:15:57;1.98;;;1.02;;
22287;SDS011;11312;51.464;6.968;2023-09-08T00:18:22;3.95;;;1.75;;
22287;SDS011;11312;51.464;6.968;2023-09-08T00:20:48;2.70;;;1.10;;
22287;SDS011;11312;51.464;6.968;2023-09-08T00:23:14;5.05;;;2.33;;
22287;SDS011;11312;51.464;6.968;2023-09-08T00:25:39;3.33;;;1.58;;
22287;SDS011;11312;51.464;6.968;2023-09-08T00:28:05;3.28;;;1.50;;
22287;SDS011;11312;51.464;6.968;2023-09-08T00:30:31;1.13;;;0.90;;
22287;SDS011;11312;51.464;6.968;2023-09-08T00:32:57;2.50;;;1.45;;
22287;SDS011;11312;51.464;6.968;2023-09-08T00:35:23;0.80;;;0.80;;
22287;SDS011;11312;51.464;6.968;2023-09-08T00:37:48;3.40;;;1.83;;
22287;SDS011;11312;51.464;6.968;2023-09-08T00:40:14;1.88;;;1.08;;
22287;SDS011;11312;51.464;6.968;2023-09-08T00:42:39;2.83;;;1.63;;
22287;SDS011;11312;51.464;6.968;2023-09-08T00:45:05;15.32;;;2.60;;
22287;SDS011;11312;51.464;6.968;2023-09-08T00:47:31;2.83;;;1.35;;
22287;SDS011;11312;51.464;6.968;2023-09-08T00:49:56;10.23;;;1.58;;
22287;SDS011;11312;51.464;6.968;2023-09-08T00:52:22;5.03;;;1.98;;
22287;SDS011;11312;51.464;6.968;2023-09-08T00:54:48;4.13;;;1.67;;
22287;SDS011;11312;51.464;6.968;2023-09-08T00:57:14;1.63;;;0.98;;
22287;SDS011;11312;51.464;6.968;2023-09-08T00:59:40;4.45;;;1.35;;
22287;SDS011;11312;51.464;6.968;2023-09-08T01:02:06;2.25;;;1.08;;
22287;SDS011;11312;51.464;6.968;2023-09-08T01:04:31;6.78;;;1.60;;
22287;SDS011;11312;51.464;6.968;2023-09-08T01:06:58;2.10;;;1.50;;
22287;SDS011;11312;51.464;6.968;2023-09-08T01:09:25;4.53;;;1.45;;
22287;SDS011;11312;51.464;6.968;2023-09-08T01:11:51;4.97;;;1.35;;
22287;SDS011;11312;51.464;6.968;2023-09-08T01:14:19;2.83;;;1.58;;
22287;SDS011;11312;51.464;6.968;2023-09-08T01:16:45;2.80;;;1.35;;
22287;SDS011;11312;51.464;6.968;2023-09-08T01:19:12;2.08;;;1.15;;
22287;SDS011;11312;51.464;6.968;2023-09-08T01:27:24;1.65;;;0.98;;
22287;SDS011;11312;51.464;6.968;2023-09-08T01:29:50;3.38;;;1.13;;
22287;SDS011;11312;51.464;6.968;2023-09-08T01:32:18;5.40;;;1.35;;
22287;SDS011;11312;51.464;6.968;2023-09-08T01:34:44;3.85;;;1.38;;
22287;SDS011;11312;51.464;6.968;2023-09-08T01:37:10;4.18;;;1.23;;
22287;SDS011;11312;51.464;6.968;2023-09-08T01:39:36;3.65;;;1.50;;
22287;SDS011;11312;51.464;6.968;2023-09-08T01:42:02;2.20;;;1.23;;
22287;SDS011;11312;51.464;6.968;2023-09-08T01:44:28;2.53;;;1.30;;
22287;SDS011;11312;51.464;6.968;2023-09-08T01:46:53;2.38;;;1.20;;
22287;SDS011;11312;51.464;6.968;2023-09-08T01:49:22;2.10;;;1.15;;
22287;SDS011;11312;51.464;6.968;2023-09-08T01:51:48;1.70;;;1.08;;
22287;SDS011;11312;51.464;6.968;2023-09-08T01:54:13;2.92;;;1.35;;
22287;SDS011;11312;51.464;6.968;2023-09-08T01:56:39;2.38;;;1.35;;
22287;SDS011;11312;51.464;6.968;2023-09-08T01:59:05;2.47;;;1.20;;
22287;SDS011;11312;51.464;6.968;2023-09-08T02:01:30;3.05;;;1.38;;
22287;SDS011;11312;51.464;6.968;2023-09-08T02:03:56;0.95;;;0.88;;
22287;SDS011;11312;51.464;6.968;2023-09-08T02:06:21;2.20;;;1.10;;
22287;SDS011;11312;51.464;6.968;2023-09-08T02:08:47;4.15;;;1.77;;
22287;SDS011;11312;51.464;6.968;2023-09-08T02:11:12;2.17;;;1.25;;
22287;SDS011;11312;51.464;6.968;2023-09-08T02:13:38;1.48;;;1.05;;
22287;SDS011;11312;51.464;6.968;2023-09-08T02:16:06;1.10;;;0.95;;
22287;SDS011;11312;51.464;6.968;2023-09-08T02:18:33;1.60;;;0.98;;
22287;SDS011;11312;51.464;6.968;2023-09-08T02:20:58;1.30;;;1.10;;
22287;SDS011;11312;51.464;6.968;2023-09-08T02:23:24;1.48;;;1.00;;
22287;SDS011;11312;51.464;6.968;2023-09-08T02:25:49;2.42;;;1.17;;
22287;SDS011;11312;51.464;6.968;2023-09-08T02:28:15;1.42;;;1.00;;
22287;SDS011;11312;51.464;6.968;2023-09-08T02:30:40;0.93;;;0.80;;
22287;SDS011;11312;51.464;6.968;2023-09-08T02:33:06;0.80;;;0.80;;
22287;SDS011;11312;51.464;6.968;2023-09-08T02:35:35;0.70;;;0.70;;
22287;SDS011;11312;51.464;6.968;2023-09-08T02:38:02;3.20;;;1.30;;
22287;SDS011;11312;51.464;6.968;2023-09-08T02:40:28;1.30;;;0.90;;
22287;SDS011;11312;51.464;6.968;2023-09-08T02:42:54;1.60;;;1.20;;
22287;SDS011;11312;51.464;6.968;2023-09-08T02:45:19;2.38;;;1.17;;
22287;SDS011;11312;51.464;6.968;2023-09-08T02:47:45;10.10;;;1.40;;
22287;SDS011;11312;51.464;6.968;2023-09-08T02:50:11;1.92;;;1.10;;
22287;SDS011;11312;51.464;6.968;2023-09-08T02:52:36;2.30;;;1.08;;
22287;SDS011;11312;51.464;6.968;2023-09-08T02:55:02;2.28;;;1.27;;
22287;SDS011;11312;51.464;6.968;2023-09-08T02:57:27;2.72;;;1.20;;
22287;SDS011;11312;51.464;6.968;2023-09-08T02:59:53;4.05;;;1.63;;
22287;SDS011;11312;51.464;6.968;2023-09-08T03:02:21;2.08;;;1.17;;
22287;SDS011;11312;51.464;6.968;2023-09-08T03:04:48;2.05;;;1.23;;
22287;SDS011;11312;51.464;6.968;2023-09-08T03:07:14;1.42;;;1.00;;
22287;SDS011;11312;51.464;6.968;2023-09-08T03:09:39;3.55;;;1.55;;
22287;SDS011;11312;51.464;6.968;2023-09-08T03:12:05;2.40;;;1.20;;
22287;SDS011;11312;51.464;6.968;2023-09-08T03:14:31;2.53;;;1.30;;
22287;SDS011;11312;51.464;6.968;2023-09-08T03:16:56;2.15;;;1.17;;
22287;SDS011;11312;51.464;6.968;2023-09-08T03:19:22;4.20;;;1.40;;
22287;SDS011;11312;51.464;6.968;2023-09-08T03:21:47;4.32;;;1.73;;
22287;SDS011;11312;51.464;6.968;2023-09-08T03:24:13;3.60;;;1.50;;
22287;SDS011;11312;51.464;6.968;2023-09-08T03:26:38;3.15;;;1.45;;
22287;SDS011;11312;51.464;6.968;2023-09-08T03:29:07;5.22;;;2.05;;
22287;SDS011;11312;51.464;6.968;2023-09-08T03:31:33;2.13;;;1.20;;
22287;SDS011;11312;51.464;6.968;2023-09-08T03:33:59;3.33;;;2.05;;
22287;SDS011;11312;51.464;6.968;2023-09-08T03:36:24;3.28;;;1.48;;
22287;SDS011;11312;51.464;6.968;2023-09-08T03:38:50;32.65;;;2.67;;
22287;SDS011;11312;51.464;6.968;2023-09-08T03:41:15;3.90;;;1.50;;
22287;SDS011;11312;51.464;6.968;2023-09-08T03:43:41;3.83;;;1.58;;
22287;SDS011;11312;51.464;6.968;2023-09-08T03:46:07;2.75;;;1.20;;
22287;SDS011;11312;51.464;6.968;2023-09-08T03:48:32;3.33;;;1.55;;
22287;SDS011;11312;51.464;6.968;2023-09-08T03:50:58;3.65;;;1.58;;
22287;SDS011;11312;51.464;6.968;2023-09-08T03:53:23;6.30;;;2.20;;
22287;SDS011;11312;51.464;6.968;2023-09-08T03:55:49;8.98;;;2.03;;
22287;SDS011;11312;51.464;6.968;2023-09-08T03:58:15;4.30;;;1.67;;
22287;SDS011;11312;51.464;6.968;2023-09-08T04:00:41;5.45;;;1.77;;
22287;SDS011;11312;51.464;6.968;2023-09-08T04:03:07;3.33;;;1.50;;
22287;SDS011;11312;51.464;6.968;2023-09-08T04:05:32;1.48;;;1.13;;
22287;SDS011;11312;51.464;6.968;2023-09-08T04:07:58;1.58;;;1.10;;
22287;SDS011;11312;51.464;6.968;2023-09-08T04:10:24;4.03;;;1.40;;
22287;SDS011;11312;51.464;6.968;2023-09-08T04:12:49;1.30;;;1.00;;
22287;SDS011;11312;51.464;6.968;2023-09-08T04:15:15;1.17;;;1.02;;
22287;SDS011;11312;51.464;6.968;2023-09-08T04:17:41;4.10;;;1.63;;
22287;SDS011;11312;51.464;6.968;2023-09-08T04:20:06;4.95;;;2.00;;
22287;SDS011;11312;51.464;6.968;2023-09-08T04:22:33;3.03;;;1.52;;
22287;SDS011;11312;51.464;6.968;2023-09-08T04:24:59;6.18;;;2.58;;
22287;SDS011;11312;51.464;6.968;2023-09-08T04:27:26;1.55;;;1.08;;
22287;SDS011;11312;51.464;6.968;2023-09-08T04:29:51;1.80;;;1.13;;
22287;SDS011;11312;51.464;6.968;2023-09-08T04:32:17;5.75;;;1.70;;
22287;SDS011;11312;51.464;6.968;2023-09-08T04:34:42;2.35;;;1.17;;
22287;SDS011;11312;51.464;6.968;2023-09-08T04:37:08;2.83;;;1.30;;
22287;SDS011;11312;51.464;6.968;2023-09-08T04:39:34;1.85;;;1.20;;
22287;SDS011;11312;51.464;6.968;2023-09-08T04:42:02;4.30;;;1.73;;
22287;SDS011;11312;51.464;6.968;2023-09-08T04:44:27;4.85;;;1.85;;
22287;SDS011;11312;51.464;6.968;2023-09-08T04:46:54;3.10;;;1.38;;
22287;SDS011;11312;51.464;6.968;2023-09-08T04:49:20;3.38;;;1.73;;
22287;SDS011;11312;51.464;6.968;2023-09-08T04:51:46;4.68;;;1.77;;
22287;SDS011;11312;51.464;6.968;2023-09-08T04:54:11;2.13;;;1.23;;
22287;SDS011;11312;51.464;6.968;2023-09-08T04:56:40;5.25;;;2.03;;
22287;SDS011;11312;51.464;6.968;2023-09-08T04:59:06;2.92;;;1.45;;
22287;SDS011;11312;51.464;6.968;2023-09-08T05:01:31;5.45;;;2.00;;
22287;SDS011;11312;51.464;6.968;2023-09-08T05:03:58;3.65;;;1.38;;
22287;SDS011;11312;51.464;6.968;2023-09-08T05:06:24;1.15;;;0.95;;
22287;SDS011;11312;51.464;6.968;2023-09-08T05:08:50;3.20;;;1.63;;
22287;SDS011;11312;51.464;6.968;2023-09-08T05:11:16;2.45;;;1.23;;
22287;SDS011;11312;51.464;6.968;2023-09-08T05:13:44;2.20;;;1.25;;
22287;SDS011;11312;51.464;6.968;2023-09-08T05:16:11;3.03;;;1.83;;
22287;SDS011;11312;51.464;6.968;2023-09-08T05:18:40;4.03;;;1.92;;
22287;SDS011;11312;51.464;6.968;2023-09-08T05:21:06;2.17;;;1.23;;
22287;SDS011;11312;51.464;6.968;2023-09-08T05:23:32;3.55;;;1.58;;
22287;SDS011;11312;51.464;6.968;2023-09-08T05:25:59;2.88;;;1.30;;
22287;SDS011;11312;51.464;6.968;2023-09-08T05:28:25;2.08;;;1.25;;
22287;SDS011;11312;51.464;6.968;2023-09-08T05:30:51;1.95;;;1.38;;
22287;SDS011;11312;51.464;6.968;2023-09-08T05:33:17;2.50;;;1.52;;
22287;SDS011;11312;51.464;6.968;2023-09-08T05:35:43;2.53;;;1.35;;
22287;SDS011;11312;51.464;6.968;2023-09-08T05:38:09;2.92;;;1.38;;
22287;SDS011;11312;51.464;6.968;2023-09-08T05:40:35;2.50;;;1.20;;
22287;SDS011;11312;51.464;6.968;2023-09-08T05:43:00;1.05;;;0.98;;
22287;SDS011;11312;51.464;6.968;2023-09-08T05:45:27;2.42;;;1.50;;
22287;SDS011;11312;51.464;6.968;2023-09-08T05:47:53;3.35;;;1.38;;
22287;SDS011;11312;51.464;6.968;2023-09-08T05:50:18;2.13;;;1.27;;
22287;SDS011;11312;51.464;6.968;2023-09-08T05:52:44;2.85;;;1.40;;
22287;SDS011;11312;51.464;6.968;2023-09-08T05:55:10;2.70;;;1.35;;
22287;SDS011;11312;51.464;6.968;2023-09-08T05:57:35;6.35;;;1.85;;
22287;SDS011;11312;51.464;6.968;2023-09-08T06:00:02;2.40;;;1.25;;
22287;SDS011;11312;51.464;6.968;2023-09-08T06:02:28;3.25;;;1.80;;
22287;SDS011;11312;51.464;6.968;2023-09-08T06:04:54;8.18;;;2.75;;
22287;SDS011;11312;51.464;6.968;2023-09-08T06:07:21;3.28;;;1.50;;
22287;SDS011;11312;51.464;6.968;2023-09-08T06:09:47;3.50;;;1.58;;
22287;SDS011;11312;51.464;6.968;2023-09-08T06:12:12;1.90;;;1.20;;
22287;SDS011;11312;51.464;6.968;2023-09-08T06:14:38;3.17;;;1.65;;
22287;SDS011;11312;51.464;6.968;2023-09-08T06:17:03;5.32;;;1.58;;
22287;SDS011;11312;51.464;6.968;2023-09-08T06:19:29;3.13;;;1.58;;
22287;SDS011;11312;51.464;6.968;2023-09-08T06:21:55;2.80;;;1.50;;
22287;SDS011;11312;51.464;6.968;2023-09-08T06:24:20;4.10;;;1.73;;
22287;SDS011;11312;51.464;6.968;2023-09-08T06:26:46;2.40;;;1.45;;
22287;SDS011;11312;51.464;6.968;2023-09-08T06:29:11;1.95;;;1.20;;
22287;SDS011;11312;51.464;6.968;2023-09-08T06:31:37;3.40;;;1.40;;
22287;SDS011;11312;51.464;6.968;2023-09-08T06:34:03;2.38;;;1.27;;
22287;SDS011;11312;51.464;6.968;2023-09-08T06:36:28;3.72;;;1.45;;
22287;SDS011;11312;51.464;6.968;2023-09-08T06:38:54;3.17;;;1.45;;
22287;SDS011;11312;51.464;6.968;2023-09-08T06:41:20;2.33;;;1.25;;
22287;SDS011;11312;51.464;6.968;2023-09-08T06:43:45;4.05;;;1.50;;
22287;SDS011;11312;51.464;6.968;2023-09-08T06:46:11;1.85;;;0.95;;
22287;SDS011;11312;51.464;6.968;2023-09-08T06:48:36;3.55;;;1.27;;
22287;SDS011;11312;51.464;6.968;2023-09-08T06:51:02;3.35;;;1.42;;
22287;SDS011;11312;51.464;6.968;2023-09-08T06:53:28;2.25;;;1.08;;
22287;SDS011;11312;51.464;6.968;2023-09-08T06:55:54;7.22;;;1.98;;
22287;SDS011;11312;51.464;6.968;2023-09-08T06:58:19;2.90;;;1.48;;
22287;SDS011;11312;51.464;6.968;2023-09-08T07:00:45;1.35;;;0.75;;
22287;SDS011;11312;51.464;6.968;2023-09-08T07:03:10;4.90;;;1.85;;
22287;SDS011;11312;51.464;6.968;2023-09-08T07:05:38;3.00;;;1.15;;
22287;SDS011;11312;51.464;6.968;2023-09-08T07:08:04;3.97;;;1.40;;
22287;SDS011;11312;51.464;6.968;2023-09-08T07:10:31;3.97;;;1.40;;
22287;SDS011;11312;51.464;6.968;2023-09-08T07:12:57;2.03;;;0.88;;
22287;SDS011;11312;51.464;6.968;2023-09-08T07:15:23;4.05;;;1.50;;
22287;SDS011;11312;51.464;6.968;2023-09-08T07:17:48;2.67;;;1.13;;
22287;SDS011;11312;51.464;6.968;2023-09-08T07:22:39;2.20;;;1.10;;
22287;SDS011;11312;51.464;6.968;2023-09-08T07:25:05;4.57;;;1.75;;
22287;SDS011;11312;51.464;6.968;2023-09-08T07:27:32;1.65;;;0.98;;
22287;SDS011;11312;51.464;6.968;2023-09-08T07:29:57;0.63;;;0.40;;
22287;SDS011;11312;51.464;6.968;2023-09-08T07:32:23;2.15;;;0.95;;
22287;SDS011;11312;51.464;6.968;2023-09-08T07:34:49;3.90;;;1.40;;
22287;SDS011;11312;51.464;6.968;2023-09-08T07:37:23;3.58;;;1.05;;
22287;SDS011;11312;51.464;6.968;2023-09-08T07:39:49;4.00;;;2.47;;
22287;SDS011;11312;51.464;6.968;2023-09-08T07:42:15;1.83;;;0.63;;
22287;SDS011;11312;51.464;6.968;2023-09-08T07:44:41;1.67;;;0.63;;
22287;SDS011;11312;51.464;6.968;2023-09-08T07:47:07;1.85;;;0.75;;
22287;SDS011;11312;51.464;6.968;2023-09-08T07:49:33;0.75;;;0.35;;
22287;SDS011;11312;51.464;6.968;2023-09-08T07:51:59;3.42;;;1.15;;
22287;SDS011;11312;51.464;6.968;2023-09-08T07:54:25;1.67;;;0.75;;
22287;SDS011;11312;51.464;6.968;2023-09-08T07:56:50;4.28;;;1.20;;
22287;SDS011;11312;51.464;6.968;2023-09-08T07:59:16;6.53;;;0.90;;
22287;SDS011;11312;51.464;6.968;2023-09-08T08:01:42;0.32;;;0.30;;
22287;SDS011;11312;51.464;6.968;2023-09-08T08:04:07;5.10;;;1.65;;
22287;SDS011;11312;51.464;6.968;2023-09-08T08:06:33;2.72;;;0.77;;
22287;SDS011;11312;51.464;6.968;2023-09-08T08:11:24;1.25;;;0.45;;
22287;SDS011;11312;51.464;6.968;2023-09-08T08:13:50;1.45;;;0.63;;
22287;SDS011;11312;51.464;6.968;2023-09-08T08:16:16;1.27;;;0.60;;
22287;SDS011;11312;51.464;6.968;2023-09-08T08:18:41;1.10;;;0.43;;
22287;SDS011;11312;51.464;6.968;2023-09-08T08:21:07;4.27;;;1.10;;
22287;SDS011;11312;51.464;6.968;2023-09-08T08:23:33;0.75;;;0.50;;
22287;SDS011;11312;51.464;6.968;2023-09-08T08:25:59;2.95;;;1.08;;
22287;SDS011;11312;51.464;6.968;2023-09-08T08:28:25;2.17;;;0.80;;
22287;SDS011;11312;51.464;6.968;2023-09-08T08:30:51;2.42;;;1.02;;
22287;SDS011;11312;51.464;6.968;2023-09-08T08:33:17;4.38;;;1.27;;
22287;SDS011;11312;51.464;6.968;2023-09-08T08:35:49;2.08;;;0.77;;
22287;SDS011;11312;51.464;6.968;2023-09-08T08:38:16;2.33;;;0.70;;
22287;SDS011;11312;51.464;6.968;2023-09-08T08:40:41;1.98;;;0.80;;
22287;SDS011;11312;51.464;6.968;2023-09-08T08:43:07;1.55;;;0.70;;
22287;SDS011;11312;51.464;6.968;2023-09-08T08:45:33;3.67;;;1.20;;
22287;SDS011;11312;51.464;6.968;2023-09-08T08:48:00;2.92;;;0.98;;
22287;SDS011;11312;51.464;6.968;2023-09-08T08:50:27;0.80;;;0.43;;
22287;SDS011;11312;51.464;6.968;2023-09-08T08:52:55;2.63;;;0.85;;
22287;SDS011;11312;51.464;6.968;2023-09-08T08:55:20;1.13;;;0.60;;
22287;SDS011;11312;51.464;6.968;2023-09-08T08:57:48;2.05;;;0.68;;
22287;SDS011;11312;51.464;6.968;2023-09-08T09:00:15;0.93;;;0.40;;
22287;SDS011;11312;51.464;6.968;2023-09-08T09:02:43;0.30;;;0.30;;
22287;SDS011;11312;51.464;6.968;2023-09-08T09:05:13;2.83;;;0.63;;
22287;SDS011;11312;51.464;6.968;2023-09-08T09:07:39;1.27;;;0.50;;
22287;SDS011;11312;51.464;6.968;2023-09-08T09:10:06;3.70;;;0.52;;
22287;SDS011;11312;51.464;6.968;2023-09-08T09:12:33;1.58;;;0.73;;
22287;SDS011;11312;51.464;6.968;2023-09-08T09:14:59;1.05;;;0.45;;
22287;SDS011;11312;51.464;6.968;2023-09-08T09:17:25;1.65;;;0.50;;
22287;SDS011;11312;51.464;6.968;2023-09-08T09:19:51;5.15;;;1.35;;
22287;SDS011;11312;51.464;6.968;2023-09-08T09:22:43;1.80;;;0.57;;
22287;SDS011;11312;51.464;6.968;2023-09-08T09:25:09;1.52;;;0.68;;
22287;SDS011;11312;51.464;6.968;2023-09-08T09:27:49;4.15;;;1.33;;
22287;SDS011;11312;51.464;6.968;2023-09-08T09:30:18;1.05;;;0.57;;
22287;SDS011;11312;51.464;6.968;2023-09-08T09:32:44;1.02;;;0.40;;
22287;SDS011;11312;51.464;6.968;2023-09-08T09:35:09;2.13;;;0.75;;
22287;SDS011;11312;51.464;6.968;2023-09-08T09:37:35;1.98;;;0.60;;
22287;SDS011;11312;51.464;6.968;2023-09-08T09:40:01;1.13;;;0.47;;
22287;SDS011;11312;51.464;6.968;2023-09-08T09:42:30;1.08;;;0.45;;
22287;SDS011;11312;51.464;6.968;2023-09-08T09:44:56;1.60;;;0.57;;
22287;SDS011;11312;51.464;6.968;2023-09-08T09:47:22;1.13;;;0.52;;
22287;SDS011;11312;51.464;6.968;2023-09-08T09:49:48;0.85;;;0.30;;
22287;SDS011;11312;51.464;6.968;2023-09-08T09:52:20;3.50;;;1.10;;
22287;SDS011;11312;51.464;6.968;2023-09-08T09:54:48;0.93;;;0.30;;
22287;SDS011;11312;51.464;6.968;2023-09-08T09:57:16;2.00;;;0.88;;
22287;SDS011;11312;51.464;6.968;2023-09-08T09:59:43;0.68;;;0.32;;
22287;SDS011;11312;51.464;6.968;2023-09-08T10:02:12;1.80;;;0.63;;
22287;SDS011;11312;51.464;6.968;2023-09-08T10:04:41;1.02;;;0.50;;
22287;SDS011;11312;51.464;6.968;2023-09-08T10:07:07;0.93;;;0.43;;
22287;SDS011;11312;51.464;6.968;2023-09-08T10:09:37;1.55;;;0.47;;
22287;SDS011;11312;51.464;6.968;2023-09-08T10:12:04;0.70;;;0.35;;
22287;SDS011;11312;51.464;6.968;2023-09-08T10:14:31;3.65;;;0.50;;
22287;SDS011;11312;51.464;6.968;2023-09-08T10:17:00;0.22;;;0.15;;
22287;SDS011;11312;51.464;6.968;2023-09-08T10:19:27;1.17;;;0.28;;
22287;SDS011;11312;51.464;6.968;2023-09-08T10:22:02;0.63;;;0.25;;
22287;SDS011;11312;51.464;6.968;2023-09-08T10:24:30;1.55;;;0.38;;
22287;SDS011;11312;51.464;6.968;2023-09-08T10:27:08;2.72;;;0.85;;
22287;SDS011;11312;51.464;6.968;2023-09-08T10:29:36;1.05;;;0.43;;
22287;SDS011;11312;51.464;6.968;2023-09-08T10:32:02;18.30;;;1.77;;
22287;SDS011;11312;51.464;6.968;2023-09-08T10:34:29;0.68;;;0.30;;
22287;SDS011;11312;51.464;6.968;2023-09-08T10:36:57;0.60;;;0.20;;
22287;SDS011;11312;51.464;6.968;2023-09-08T10:39:35;1.23;;;0.63;;
22287;SDS011;11312;51.464;6.968;2023-09-08T10:47:22;2.17;;;0.52;;
22287;SDS011;11312;51.464;6.968;2023-09-08T10:49:50;0.57;;;0.17;;
22287;SDS011;11312;51.464;6.968;2023-09-08T10:52:18;3.55;;;1.30;;
22287;SDS011;11312;51.464;6.968;2023-09-08T10:54:50;0.75;;;0.28;;
22287;SDS011;11312;51.464;6.968;2023-09-08T10:57:17;0.70;;;0.30;;
22287;SDS011;11312;51.464;6.968;2023-09-08T10:59:45;3.17;;;1.00;;
22287;SDS011;11312;51.464;6.968;2023-09-08T11:05:08;1.73;;;0.55;;
22287;SDS011;11312;51.464;6.968;2023-09-08T11:07:38;0.80;;;0.20;;
22287;SDS011;11312;51.464;6.968;2023-09-08T11:10:06;1.40;;;0.43;;
22287;SDS011;11312;51.464;6.968;2023-09-08T11:12:33;0.45;;;0.20;;
22287;SDS011;11312;51.464;6.968;2023-09-08T11:14:59;0.45;;;0.30;;
22287;SDS011;11312;51.464;6.968;2023-09-08T11:17:30;2.60;;;0.70;;
22287;SDS011;11312;51.464;6.968;2023-09-08T11:19:56;0.30;;;0.30;;
22287;SDS011;11312;51.464;6.968;2023-09-08T11:22:23;4.70;;;0.75;;
22287;SDS011;11312;51.464;6.968;2023-09-08T11:24:50;1.05;;;0.52;;
22287;SDS011;11312;51.464;6.968;2023-09-08T11:27:17;0.80;;;0.25;;
22287;SDS011;11312;51.464;6.968;2023-09-08T11:29:43;1.38;;;0.32;;
22287;SDS011;11312;51.464;6.968;2023-09-08T11:32:10;0.00;;;0.00;;
22287;SDS011;11312;51.464;6.968;2023-09-08T11:34:36;1.48;;;0.35;;
22287;SDS011;11312;51.464;6.968;2023-09-08T11:37:08;0.68;;;0.30;;
22287;SDS011;11312;51.464;6.968;2023-09-08T11:39:38;2.22;;;0.73;;
22287;SDS011;11312;51.464;6.968;2023-09-08T11:42:07;1.75;;;0.43;;
22287;SDS011;11312;51.464;6.968;2023-09-08T11:44:35;0.90;;;0.25;;
22287;SDS011;11312;51.464;6.968;2023-09-08T11:47:02;1.90;;;0.50;;
22287;SDS011;11312;51.464;6.968;2023-09-08T11:49:35;2.90;;;0.55;;
22287;SDS011;11312;51.464;6.968;2023-09-08T11:52:07;0.70;;;0.35;;
22287;SDS011;11312;51.464;6.968;2023-09-08T11:54:35;0.00;;;0.00;;
22287;SDS011;11312;51.464;6.968;2023-09-08T11:57:03;2.55;;;0.65;;
22287;SDS011;11312;51.464;6.968;2023-09-08T11:59:31;7.03;;;1.63;;
22287;SDS011;11312;51.464;6.968;2023-09-08T12:01:58;0.40;;;0.17;;
22287;SDS011;11312;51.464;6.968;2023-09-08T12:04:24;1.27;;;0.30;;
22287;SDS011;11312;51.464;6.968;2023-09-08T12:06:51;0.57;;;0.10;;
22287;SDS011;11312;51.464;6.968;2023-09-08T12:09:17;0.60;;;0.25;;
22287;SDS011;11312;51.464;6.968;2023-09-08T12:11:43;2.72;;;0.73;;
22287;SDS011;11312;51.464;6.968;2023-09-08T12:14:12;2.42;;;0.93;;
22287;SDS011;11312;51.464;6.968;2023-09-08T12:16:40;2.53;;;0.57;;
22287;SDS011;11312;51.464;6.968;2023-09-08T12:19:06;3.08;;;0.95;;
22287;SDS011;11312;51.464;6.968;2023-09-08T12:21:53;1.77;;;0.52;;
22287;SDS011;11312;51.464;6.968;2023-09-08T12:27:14;1.98;;;0.60;;
22287;SDS011;11312;51.464;6.968;2023-09-08T12:29:41;2.40;;;0.63;;
22287;SDS011;11312;51.464;6.968;2023-09-08T12:32:16;1.33;;;0.38;;
22287;SDS011;11312;51.464;6.968;2023-09-08T12:34:43;4.50;;;1.05;;
22287;SDS011;11312;51.464;6.968;2023-09-08T12:37:09;3.80;;;0.95;;
22287;SDS011;11312;51.464;6.968;2023-09-08T12:39:36;2.13;;;0.47;;
22287;SDS011;11312;51.464;6.968;2023-09-08T12:42:03;2.08;;;0.45;;
22287;SDS011;11312;51.464;6.968;2023-09-08T12:44:29;1.65;;;0.52;;
22287;SDS011;11312;51.464;6.968;2023-09-08T12:46:54;1.55;;;0.30;;
22287;SDS011;11312;51.464;6.968;2023-09-08T12:49:20;4.03;;;0.70;;
22287;SDS011;11312;51.464;6.968;2023-09-08T12:51:46;2.38;;;0.98;;
22287;SDS011;11312;51.464;6.968;2023-09-08T12:54:11;2.88;;;0.52;;
22287;SDS011;11312;51.464;6.968;2023-09-08T12:56:37;1.08;;;0.40;;
22287;SDS011;11312;51.464;6.968;2023-09-08T12:59:02;1.35;;;0.47;;
22287;SDS011;11312;51.464;6.968;2023-09-08T13:01:28;2.13;;;0.52;;
22287;SDS011;11312;51.464;6.968;2023-09-08T13:03:54;6.07;;;0.68;;
22287;SDS011;11312;51.464;6.968;2023-09-08T13:06:20;2.70;;;0.63;;
22287;SDS011;11312;51.464;6.968;2023-09-08T13:08:45;0.80;;;0.40;;
22287;SDS011;11312;51.464;6.968;2023-09-08T13:11:11;3.10;;;0.93;;
22287;SDS011;11312;51.464;6.968;2023-09-08T13:13:36;2.53;;;0.82;;
22287;SDS011;11312;51.464;6.968;2023-09-08T13:16:02;1.30;;;0.57;;
22287;SDS011;11312;51.464;6.968;2023-09-08T13:18:28;1.73;;;0.57;;
22287;SDS011;11312;51.464;6.968;2023-09-08T13:20:55;5.22;;;1.27;;
22287;SDS011;11312;51.464;6.968;2023-09-08T13:23:21;0.88;;;0.30;;
22287;SDS011;11312;51.464;6.968;2023-09-08T13:25:46;2.22;;;0.70;;
22287;SDS011;11312;51.464;6.968;2023-09-08T13:28:12;2.63;;;0.77;;
22287;SDS011;11312;51.464;6.968;2023-09-08T13:30:38;1.55;;;0.60;;
22287;SDS011;11312;51.464;6.968;2023-09-08T13:33:03;0.75;;;0.30;;
22287;SDS011;11312;51.464;6.968;2023-09-08T13:35:29;1.63;;;0.43;;
22287;SDS011;11312;51.464;6.968;2023-09-08T13:37:55;3.25;;;0.88;;
22287;SDS011;11312;51.464;6.968;2023-09-08T13:40:20;2.30;;;0.35;;
22287;SDS011;11312;51.464;6.968;2023-09-08T13:42:46;0.47;;;0.20;;
22287;SDS011;11312;51.464;6.968;2023-09-08T13:45:12;0.77;;;0.30;;
22287;SDS011;11312;51.464;6.968;2023-09-08T13:47:37;0.63;;;0.20;;
22287;SDS011;11312;51.464;6.968;2023-09-08T13:50:03;1.10;;;0.20;;
22287;SDS011;11312;51.464;6.968;2023-09-08T13:52:30;1.77;;;0.47;;
22287;SDS011;11312;51.464;6.968;2023-09-08T13:54:55;1.35;;;0.47;;
22287;SDS011;11312;51.464;6.968;2023-09-08T13:57:21;2.65;;;0.95;;
22287;SDS011;11312;51.464;6.968;2023-09-08T13:59:48;0.80;;;0.35;;
22287;SDS011;11312;51.464;6.968;2023-09-08T14:02:14;1.45;;;0.50;;
22287;SDS011;11312;51.464;6.968;2023-09-08T14:04:40;4.20;;;0.90;;
22287;SDS011;11312;51.464;6.968;2023-09-08T14:07:06;1.52;;;0.40;;
22287;SDS011;11312;51.464;6.968;2023-09-08T14:09:33;1.77;;;0.57;;
22287;SDS011;11312;51.464;6.968;2023-09-08T14:11:59;1.13;;;0.40;;
22287;SDS011;11312;51.464;6.968;2023-09-08T14:14:25;0.70;;;0.28;;
22287;SDS011;11312;51.464;6.968;2023-09-08T14:16:51;2.55;;;0.68;;
22287;SDS011;11312;51.464;6.968;2023-09-08T14:19:16;1.98;;;0.60;;
22287;SDS011;11312;51.464;6.968;2023-09-08T14:21:42;0.75;;;0.22;;
22287;SDS011;11312;51.464;6.968;2023-09-08T14:24:07;0.65;;;0.40;;
22287;SDS011;11312;51.464;6.968;2023-09-08T14:26:33;1.52;;;0.68;;
22287;SDS011;11312;51.464;6.968;2023-09-08T14:29:00;1.70;;;0.70;;
22287;SDS011;11312;51.464;6.968;2023-09-08T14:31:26;1.48;;;0.35;;
22287;SDS011;11312;51.464;6.968;2023-09-08T14:33:51;1.60;;;0.35;;
22287;SDS011;11312;51.464;6.968;2023-09-08T14:36:17;3.33;;;0.95;;
22287;SDS011;11312;51.464;6.968;2023-09-08T14:38:44;2.80;;;0.77;;
22287;SDS011;11312;51.464;6.968;2023-09-08T14:41:10;1.10;;;0.50;;
22287;SDS011;11312;51.464;6.968;2023-09-08T14:43:35;0.68;;;0.28;;
22287;SDS011;11312;51.464;6.968;2023-09-08T14:46:01;0.20;;;0.20;;
22287;SDS011;11312;51.464;6.968;2023-09-08T14:48:28;2.38;;;0.73;;
22287;SDS011;11312;51.464;6.968;2023-09-08T14:50:54;2.38;;;0.88;;
22287;SDS011;11312;51.464;6.968;2023-09-08T14:53:21;2.65;;;0.73;;
22287;SDS011;11312;51.464;6.968;2023-09-08T14:55:47;3.00;;;0.77;;
22287;SDS011;11312;51.464;6.968;2023-09-08T14:58:16;2.63;;;0.75;;
22287;SDS011;11312;51.464;6.968;2023-09-08T15:00:42;3.17;;;0.88;;
22287;SDS011;11312;51.464;6.968;2023-09-08T15:03:09;1.70;;;0.68;;
22287;SDS011;11312;51.464;6.968;2023-09-08T15:05:35;0.40;;;0.22;;